createdAt,value
2022-10-19T00:02:11.893Z,1.70
2022-10-19T00:04:42.529Z,1.40
2022-10-19T00:09:45.344Z,1.33
2022-10-19T00:12:15.673Z,1.52
2022-10-19T00:14:47.508Z,1.65
2022-10-19T00:17:17.563Z,1.40
2022-10-19T00:19:48.427Z,1.42
2022-10-19T00:22:18.489Z,1.10
2022-10-19T00:24:49.000Z,1.30
2022-10-19T00:29:49.489Z,0.92
2022-10-19T00:32:20.085Z,0.88
2022-10-19T00:34:50.411Z,0.93
2022-10-19T00:37:21.064Z,1.05
2022-10-19T00:39:52.547Z,1.45
2022-10-19T00:42:26.227Z,1.00
2022-10-19T00:45:06.786Z,0.80
2022-10-19T00:47:38.831Z,1.20
2022-10-19T00:50:10.010Z,1.20
2022-10-19T00:52:40.614Z,0.70
2022-10-19T00:55:13.750Z,1.20
2022-10-19T00:57:44.363Z,1.00
2022-10-19T01:00:15.135Z,1.10
2022-10-19T01:02:45.586Z,1.48
2022-10-19T01:07:47.002Z,1.33
2022-10-19T01:10:17.201Z,2.10
2022-10-19T01:13:09.239Z,1.60
2022-10-19T01:16:13.798Z,1.30
2022-10-19T01:19:07.516Z,1.17
2022-10-19T01:21:43.678Z,1.55
2022-10-19T01:24:58.965Z,0.77
2022-10-19T01:28:13.017Z,1.15
2022-10-19T01:30:59.774Z,1.05
2022-10-19T01:33:41.465Z,1.20
2022-10-19T01:36:41.907Z,1.50
2022-10-19T01:39:22.223Z,1.25
2022-10-19T01:42:25.027Z,1.58
2022-10-19T01:44:57.353Z,1.45
2022-10-19T01:47:41.288Z,1.60
2022-10-19T01:50:32.903Z,1.42
2022-10-19T01:53:05.806Z,1.52
2022-10-19T01:55:39.005Z,1.40
2022-10-19T01:58:17.901Z,1.35
2022-10-19T02:00:51.348Z,1.30
2022-10-19T02:03:22.384Z,1.20
2022-10-19T02:05:55.690Z,1.30
2022-10-19T02:08:36.470Z,1.70
2022-10-19T02:11:06.888Z,1.40
2022-10-19T02:13:38.483Z,1.00
2022-10-19T02:16:15.203Z,0.85
2022-10-19T02:18:50.471Z,0.90
2022-10-19T02:21:23.590Z,1.05
2022-10-19T02:23:54.363Z,1.38
2022-10-19T02:26:24.567Z,1.08
2022-10-19T02:28:57.786Z,0.90
2022-10-19T02:31:28.587Z,1.75
2022-10-19T02:33:59.043Z,1.40
2022-10-19T02:36:29.954Z,1.13
2022-10-19T02:39:00.235Z,1.10
2022-10-19T02:42:04.925Z,1.50
2022-10-19T02:47:29.542Z,1.00
2022-10-19T02:49:59.811Z,1.25
2022-10-19T02:52:31.494Z,1.30
2022-10-19T02:55:01.691Z,1.38
2022-10-19T02:57:33.677Z,1.48
2022-10-19T03:00:05.116Z,1.83
2022-10-19T03:02:35.754Z,1.83
2022-10-19T03:07:36.445Z,1.95
2022-10-19T03:10:07.219Z,1.70
2022-10-19T03:12:37.697Z,1.30
2022-10-19T03:15:08.234Z,1.60
2022-10-19T03:17:38.728Z,1.90
2022-10-19T03:20:09.373Z,2.03
2022-10-19T03:22:40.689Z,2.13
2022-10-19T03:25:11.136Z,1.70
2022-10-19T03:27:41.640Z,1.70
2022-10-19T03:30:14.706Z,1.30
2022-10-19T03:32:45.134Z,1.58
2022-10-19T03:35:15.388Z,1.20
2022-10-19T03:37:45.864Z,1.50
2022-10-19T03:40:15.803Z,1.30
2022-10-19T03:42:46.356Z,1.50
2022-10-19T03:47:50.227Z,1.13
2022-10-19T03:50:23.328Z,1.20
2022-10-19T03:52:53.478Z,0.82
2022-10-19T03:55:24.158Z,1.00
2022-10-19T03:57:54.271Z,1.00
2022-10-19T04:00:24.756Z,1.08
2022-10-19T04:05:24.187Z,1.40
2022-10-19T04:07:54.630Z,1.25
2022-10-19T04:10:24.664Z,1.55
2022-10-19T04:12:55.082Z,1.90
2022-10-19T04:15:25.926Z,1.60
2022-10-19T04:17:56.344Z,1.95
2022-10-19T04:20:26.386Z,1.90
2022-10-19T04:22:56.823Z,1.88
2022-10-19T04:25:26.647Z,1.95
2022-10-19T04:27:57.171Z,1.63
2022-10-19T04:30:27.214Z,1.70
2022-10-19T04:32:57.715Z,2.20
2022-10-19T04:35:27.904Z,2.00
2022-10-19T04:37:58.365Z,1.70
2022-10-19T04:40:28.457Z,1.73
2022-10-19T04:42:59.932Z,1.85
2022-10-19T04:45:29.959Z,1.95
2022-10-19T04:48:03.091Z,1.90
2022-10-19T04:50:33.760Z,2.30
2022-10-19T04:53:03.918Z,1.73
2022-10-19T04:55:33.825Z,2.00
2022-10-19T04:58:04.261Z,1.92
2022-10-19T05:00:34.347Z,1.02
2022-10-19T05:03:04.910Z,1.30
2022-10-19T05:05:35.872Z,1.33
2022-10-19T05:08:06.540Z,1.38
2022-10-19T05:10:37.231Z,1.55
2022-10-19T05:13:07.718Z,1.52
2022-10-19T05:18:07.704Z,1.25
2022-10-19T05:20:37.527Z,1.60
2022-10-19T05:23:08.059Z,1.60
2022-10-19T05:25:38.084Z,1.70
2022-10-19T05:28:08.572Z,1.42
2022-10-19T05:33:10.309Z,1.63
2022-10-19T05:38:09.635Z,1.70
2022-10-19T05:40:40.121Z,1.55
2022-10-19T05:43:10.228Z,1.65
2022-10-19T05:45:40.529Z,1.65
2022-10-19T05:48:10.468Z,1.30
2022-10-19T05:50:40.906Z,1.38
2022-10-19T05:53:10.709Z,1.30
2022-10-19T05:55:41.382Z,1.42
2022-10-19T06:00:40.688Z,1.40
2022-10-19T06:03:11.076Z,1.70
2022-10-19T06:08:10.291Z,2.17
2022-10-19T06:10:40.767Z,1.70
2022-10-19T06:15:41.390Z,1.58
2022-10-19T06:18:12.882Z,1.90
2022-10-19T06:20:44.245Z,1.90
2022-10-19T06:23:14.240Z,2.08
2022-10-19T06:25:48.318Z,2.05
2022-10-19T06:28:18.309Z,2.50
2022-10-19T06:30:49.663Z,2.03
2022-10-19T06:33:19.816Z,2.00
2022-10-19T06:35:50.131Z,1.77
2022-10-19T06:38:20.326Z,1.60
2022-10-19T06:40:50.800Z,1.50
2022-10-19T06:45:49.998Z,1.52
2022-10-19T06:48:20.373Z,1.80
2022-10-19T06:51:02.092Z,2.03
2022-10-19T06:53:35.554Z,1.80
2022-10-19T06:56:07.758Z,1.40
2022-10-19T06:58:39.439Z,1.80
2022-10-19T07:01:11.321Z,1.50
2022-10-19T07:03:42.822Z,1.73
2022-10-19T07:06:16.167Z,1.77
2022-10-19T07:08:46.731Z,1.60
2022-10-19T07:11:21.898Z,1.65
2022-10-19T07:13:53.776Z,1.67
2022-10-19T07:16:24.072Z,1.50
2022-10-19T07:18:55.578Z,1.45
2022-10-19T07:21:28.673Z,1.58
2022-10-19T07:23:59.346Z,1.42
2022-10-19T07:26:31.636Z,1.58
2022-10-19T07:29:02.342Z,1.60
2022-10-19T07:31:34.765Z,1.08
2022-10-19T07:34:07.703Z,1.90
2022-10-19T07:36:38.239Z,1.38
2022-10-19T07:39:09.749Z,1.45
2022-10-19T07:41:40.352Z,1.20
2022-10-19T07:44:13.403Z,1.30
2022-10-19T07:46:46.092Z,1.50
2022-10-19T07:49:20.120Z,1.63
2022-10-19T07:51:54.961Z,1.40
2022-10-19T07:54:25.885Z,1.50
2022-10-19T07:56:56.050Z,1.00
2022-10-19T07:59:26.635Z,1.17
2022-10-19T08:01:58.211Z,1.20
2022-10-19T08:04:59.504Z,1.50
2022-10-19T08:07:18.627Z,1.58
2022-10-19T08:09:53.256Z,1.63
2022-10-19T08:12:23.750Z,1.70
2022-10-19T08:14:55.774Z,1.90
2022-10-19T08:17:25.716Z,1.88
2022-10-19T08:19:56.151Z,1.40
2022-10-19T08:22:26.099Z,1.52
2022-10-19T08:24:56.750Z,1.83
2022-10-19T08:27:27.165Z,1.30
2022-10-19T08:29:57.713Z,1.60
2022-10-19T08:32:27.632Z,1.60
2022-10-19T08:34:58.004Z,1.38
2022-10-19T08:40:22.183Z,1.23
2022-10-19T08:43:00.169Z,1.80
2022-10-19T08:48:28.095Z,3.10
2022-10-19T08:50:59.729Z,2.75
2022-10-19T08:53:39.544Z,2.42
2022-10-19T08:56:45.664Z,2.63
2022-10-19T08:59:54.095Z,2.75
2022-10-19T09:02:52.733Z,2.42
2022-10-19T09:05:33.945Z,2.05
2022-10-19T09:08:05.060Z,2.45
2022-10-19T09:10:44.784Z,2.65
2022-10-19T09:13:36.399Z,2.42
2022-10-19T09:16:19.240Z,2.50
2022-10-19T09:18:50.619Z,2.03
2022-10-19T09:21:36.841Z,2.22
2022-10-19T09:24:37.664Z,2.28
2022-10-19T09:27:13.157Z,2.58
2022-10-19T09:29:49.479Z,2.20
2022-10-19T09:32:43.482Z,2.70
2022-10-19T09:35:25.927Z,2.17
2022-10-19T09:37:57.295Z,2.13
2022-10-19T09:40:32.226Z,1.95
2022-10-19T09:43:14.368Z,2.33
2022-10-19T09:45:52.425Z,1.73
2022-10-19T09:48:50.687Z,1.90
2022-10-19T09:51:22.211Z,2.63
2022-10-19T09:53:57.479Z,2.88
2022-10-19T09:56:29.509Z,3.08
2022-10-19T09:59:00.608Z,3.35
2022-10-19T10:01:44.464Z,3.38
2022-10-19T10:06:50.848Z,2.83
2022-10-19T10:09:27.204Z,3.17
2022-10-19T10:14:36.573Z,2.95
2022-10-19T10:17:18.588Z,2.67
2022-10-19T10:20:00.878Z,3.47
2022-10-19T10:22:36.496Z,3.28
2022-10-19T10:25:27.915Z,2.65
2022-10-19T10:28:04.939Z,1.73
2022-10-19T10:30:38.222Z,1.55
2022-10-19T10:33:21.147Z,1.10
2022-10-19T10:36:02.767Z,1.40
2022-10-19T10:38:38.393Z,1.20
2022-10-19T10:41:13.764Z,1.23
2022-10-19T10:44:08.045Z,1.40
2022-10-19T10:46:44.540Z,1.50
2022-10-19T10:49:44.636Z,1.40
2022-10-19T10:52:17.572Z,1.20
2022-10-19T10:55:04.184Z,1.40
2022-10-19T10:57:41.621Z,1.25
2022-10-19T11:00:23.634Z,1.52
2022-10-19T11:02:56.372Z,1.65
2022-10-19T11:05:31.485Z,1.60
2022-10-19T11:08:20.184Z,1.13
2022-10-19T11:11:03.655Z,1.30
2022-10-19T11:13:53.186Z,1.17
2022-10-19T11:16:36.156Z,1.00
2022-10-19T11:19:28.555Z,1.05
2022-10-19T11:22:04.831Z,1.08
2022-10-19T11:24:58.831Z,1.60
2022-10-19T11:27:42.034Z,1.52
2022-10-19T11:30:24.369Z,1.60
2022-10-19T11:33:07.694Z,1.48
2022-10-19T11:35:54.191Z,1.52
2022-10-19T11:38:32.090Z,1.30
2022-10-19T11:41:28.002Z,0.90
2022-10-19T11:44:28.267Z,1.40
2022-10-19T11:47:25.654Z,1.10
2022-10-19T11:50:12.873Z,1.35
2022-10-19T11:52:54.844Z,1.02
2022-10-19T11:55:52.926Z,1.20
2022-10-19T11:59:01.573Z,0.60
2022-10-19T12:01:58.446Z,0.90
2022-10-19T12:04:44.498Z,0.45
2022-10-19T12:07:32.729Z,0.70
2022-10-19T12:10:10.610Z,0.82
2022-10-19T12:12:45.929Z,1.00
2022-10-19T12:15:30.655Z,0.93
2022-10-19T12:18:41.069Z,1.20
2022-10-19T12:21:46.970Z,1.13
2022-10-19T12:24:21.596Z,0.93
2022-10-19T12:26:53.388Z,0.50
2022-10-19T12:29:30.363Z,1.05
2022-10-19T12:32:04.121Z,0.65
2022-10-19T12:34:52.973Z,0.85
2022-10-19T12:37:40.958Z,0.80
2022-10-19T12:40:22.423Z,0.68
2022-10-19T12:42:58.066Z,0.60
2022-10-19T12:45:51.571Z,0.57
2022-10-19T12:48:23.423Z,0.70
2022-10-19T12:50:58.308Z,0.55
2022-10-19T12:53:37.052Z,0.90
2022-10-19T12:56:47.287Z,0.60
2022-10-19T12:59:32.323Z,0.60
2022-10-19T13:02:06.583Z,0.73
2022-10-19T13:04:38.969Z,0.80
2022-10-19T13:07:12.049Z,0.52
2022-10-19T13:09:45.150Z,0.60
2022-10-19T13:12:22.264Z,0.93
2022-10-19T13:15:02.250Z,0.70
2022-10-19T13:17:52.884Z,0.77
2022-10-19T13:20:29.173Z,0.82
2022-10-19T13:23:02.148Z,0.65
2022-10-19T13:25:36.814Z,0.98
2022-10-19T13:28:10.399Z,0.50
2022-10-19T13:30:40.396Z,0.55
2022-10-19T13:33:26.156Z,0.80
2022-10-19T13:36:02.050Z,0.65
2022-10-19T13:41:20.561Z,0.90
2022-10-19T13:44:07.982Z,0.88
2022-10-19T13:46:57.097Z,0.85
2022-10-19T13:49:53.137Z,0.90
2022-10-19T13:52:59.621Z,0.65
2022-10-19T13:55:47.356Z,1.20
2022-10-19T13:58:17.496Z,0.90
2022-10-19T14:01:06.453Z,0.90
2022-10-19T14:04:00.243Z,0.90
2022-10-19T14:06:45.660Z,1.00
2022-10-19T14:09:44.191Z,0.70
2022-10-19T14:12:25.405Z,1.00
2022-10-19T14:14:56.204Z,0.63
2022-10-19T14:17:31.434Z,0.90
2022-10-19T14:20:02.395Z,0.80
2022-10-19T14:22:37.840Z,0.75
2022-10-19T14:25:31.055Z,0.90
2022-10-19T14:28:05.998Z,0.85
2022-10-19T14:30:37.493Z,0.80
2022-10-19T14:33:16.229Z,1.00
2022-10-19T14:35:51.575Z,1.15
2022-10-19T14:38:39.284Z,0.90
2022-10-19T14:41:28.544Z,0.90
2022-10-19T14:44:00.970Z,1.38
2022-10-19T14:46:33.735Z,1.30
2022-10-19T14:49:07.353Z,0.90
2022-10-19T14:51:53.747Z,1.33
2022-10-19T14:54:27.034Z,0.90
2022-10-19T14:57:27.090Z,1.10
2022-10-19T15:00:07.400Z,0.90
2022-10-19T15:02:45.487Z,1.00
2022-10-19T15:05:28.266Z,1.10
2022-10-19T15:07:58.393Z,1.20
2022-10-19T15:10:44.670Z,1.20
2022-10-19T15:13:30.047Z,1.40
2022-10-19T15:16:00.979Z,1.40
2022-10-19T15:18:49.516Z,1.15
2022-10-19T15:21:22.223Z,1.48
2022-10-19T15:23:54.964Z,1.10
2022-10-19T15:26:28.270Z,1.30
2022-10-19T15:29:11.195Z,1.10
2022-10-19T15:31:41.795Z,1.35
2022-10-19T15:34:32.610Z,1.10
2022-10-19T15:37:08.387Z,1.30
2022-10-19T15:39:44.765Z,1.50
2022-10-19T15:42:37.838Z,1.20
2022-10-19T15:45:32.935Z,1.50
2022-10-19T15:48:12.492Z,1.30
2022-10-19T15:50:46.647Z,1.42
2022-10-19T15:53:18.175Z,1.50
2022-10-19T15:55:48.679Z,1.60
2022-10-19T15:58:19.500Z,1.40
2022-10-19T16:00:52.297Z,1.50
2022-10-19T16:03:24.284Z,1.60
2022-10-19T16:05:54.335Z,1.60
2022-10-19T16:08:24.991Z,1.27
2022-10-19T16:10:55.055Z,1.38
2022-10-19T16:13:25.937Z,1.55
2022-10-19T16:16:10.656Z,1.80
2022-10-19T16:18:44.549Z,1.60
2022-10-19T16:21:15.427Z,1.48
2022-10-19T16:23:46.726Z,1.70
2022-10-19T16:26:18.334Z,1.73
2022-10-19T16:28:49.848Z,1.30
2022-10-19T16:31:20.603Z,1.60
2022-10-19T16:33:51.589Z,1.17
2022-10-19T16:36:24.323Z,1.10
2022-10-19T16:38:55.035Z,1.50
2022-10-19T16:41:25.090Z,1.55
2022-10-19T16:43:56.758Z,1.15
2022-10-19T16:46:27.170Z,0.98
2022-10-19T16:48:57.845Z,1.05
2022-10-19T16:51:38.840Z,1.30
2022-10-19T16:54:12.116Z,1.20
2022-10-19T16:56:49.384Z,1.40
2022-10-19T16:59:21.003Z,1.13
2022-10-19T17:01:51.046Z,1.40
2022-10-19T17:04:21.473Z,1.30
2022-10-19T17:06:51.450Z,1.10
2022-10-19T17:09:40.702Z,1.25
2022-10-19T17:12:12.117Z,1.40
2022-10-19T17:14:43.863Z,1.33
2022-10-19T17:17:14.081Z,1.55
2022-10-19T17:19:44.285Z,1.05
2022-10-19T17:22:17.081Z,1.02
2022-10-19T17:24:48.397Z,1.25
2022-10-19T17:27:18.437Z,0.93
2022-10-19T17:29:51.871Z,0.88
2022-10-19T17:32:21.679Z,1.10
2022-10-19T17:34:51.418Z,0.90
2022-10-19T17:37:21.669Z,0.90
2022-10-19T17:39:52.824Z,0.90
2022-10-19T17:42:23.134Z,0.93
2022-10-19T17:44:56.103Z,1.00
2022-10-19T17:47:25.995Z,0.82
2022-10-19T17:49:56.377Z,1.13
2022-10-19T17:52:26.236Z,1.20
2022-10-19T17:55:12.896Z,1.90
2022-10-19T17:57:43.334Z,1.00
2022-10-19T18:00:17.144Z,0.95
2022-10-19T18:02:47.519Z,0.88
2022-10-19T18:05:17.963Z,1.13
2022-10-19T18:07:47.674Z,1.00
2022-10-19T18:10:18.114Z,0.77
2022-10-19T18:12:49.059Z,1.10
2022-10-19T18:15:19.581Z,0.80
2022-10-19T18:17:49.462Z,1.35
2022-10-19T18:20:19.901Z,1.05
2022-10-19T18:22:49.588Z,1.13
2022-10-19T18:25:25.884Z,1.10
2022-10-19T18:28:00.735Z,0.65
2022-10-19T18:33:00.789Z,1.00
2022-10-19T18:35:30.723Z,1.10
2022-10-19T18:38:00.973Z,0.95
2022-10-19T18:40:31.507Z,0.90
2022-10-19T18:43:01.412Z,0.90
2022-10-19T18:45:31.859Z,1.05
2022-10-19T18:48:01.561Z,1.15
2022-10-19T18:50:32.004Z,1.33
2022-10-19T18:53:01.862Z,0.82
2022-10-19T18:55:32.275Z,1.20
2022-10-19T18:58:02.602Z,1.02
2022-10-19T19:00:32.516Z,1.15
2022-10-19T19:03:02.974Z,1.33
2022-10-19T19:05:34.702Z,1.40
2022-10-19T19:08:05.148Z,1.00
2022-10-19T19:10:35.551Z,1.10
2022-10-19T19:13:06.000Z,1.17
2022-10-19T19:15:36.014Z,1.60
2022-10-19T19:18:06.682Z,2.00
2022-10-19T19:20:36.742Z,1.55
2022-10-19T19:23:07.045Z,1.23
2022-10-19T19:25:40.368Z,1.55
2022-10-19T19:28:10.788Z,1.48
2022-10-19T19:30:44.950Z,1.30
2022-10-19T19:33:15.897Z,1.20
2022-10-19T19:35:46.989Z,1.27
2022-10-19T19:38:17.962Z,1.17
2022-10-19T19:40:48.590Z,3.67
2022-10-19T19:43:21.103Z,1.33
2022-10-19T19:46:00.915Z,1.60
2022-10-19T19:48:33.719Z,1.70
2022-10-19T19:51:05.161Z,1.30
2022-10-19T19:53:35.562Z,1.10
2022-10-19T19:56:07.496Z,1.15
2022-10-19T19:58:38.433Z,1.80
2022-10-19T20:01:16.944Z,1.13
2022-10-19T20:03:50.626Z,1.45
2022-10-19T20:06:25.206Z,1.00
2022-10-19T20:08:58.054Z,1.77
2022-10-19T20:11:30.589Z,1.17
2022-10-19T20:14:01.042Z,1.15
2022-10-19T20:16:34.647Z,0.93
2022-10-19T20:19:16.559Z,1.33
2022-10-19T20:21:46.635Z,1.20
2022-10-19T20:24:17.206Z,1.55
2022-10-19T20:26:47.244Z,1.58
2022-10-19T20:29:17.686Z,1.23
2022-10-19T20:31:48.279Z,1.52
2022-10-19T20:34:21.904Z,1.48
2022-10-19T20:36:56.780Z,1.42
2022-10-19T20:39:29.121Z,1.20
2022-10-19T20:41:59.196Z,1.35
2022-10-19T20:44:29.579Z,1.10
2022-10-19T20:46:59.930Z,1.52
2022-10-19T20:49:29.727Z,1.17
2022-10-19T20:52:00.268Z,1.00
2022-10-19T20:54:30.286Z,1.08
2022-10-19T20:57:01.025Z,1.50
2022-10-19T20:59:32.595Z,1.20
2022-10-19T21:02:03.123Z,0.95
2022-10-19T21:04:33.170Z,1.30
2022-10-19T21:07:05.534Z,1.20
2022-10-19T21:09:35.780Z,1.40
2022-10-19T21:12:06.244Z,1.40
2022-10-19T21:17:05.667Z,1.30
2022-10-19T21:19:36.134Z,1.20
2022-10-19T21:24:41.868Z,1.98
2022-10-19T21:27:13.245Z,1.30
2022-10-19T21:29:44.819Z,1.60
2022-10-19T21:32:14.970Z,1.27
2022-10-19T21:34:45.021Z,1.48
2022-10-19T21:37:15.443Z,1.60
2022-10-19T21:39:45.599Z,2.13
2022-10-19T21:42:15.939Z,1.40
2022-10-19T21:44:46.331Z,1.48
2022-10-19T21:47:16.705Z,1.40
2022-10-19T21:49:46.977Z,1.88
2022-10-19T21:52:17.318Z,2.00
2022-10-19T21:54:47.586Z,1.60
2022-10-19T21:57:17.891Z,1.77
2022-10-19T21:59:47.910Z,1.85
2022-10-19T22:02:18.232Z,1.88
2022-10-19T22:04:48.450Z,1.90
2022-10-19T22:07:18.879Z,1.98
2022-10-19T22:09:48.997Z,1.55
2022-10-19T22:12:19.456Z,1.90
2022-10-19T22:17:19.575Z,1.88
2022-10-19T22:19:54.822Z,1.50
2022-10-19T22:22:28.505Z,2.08
2022-10-19T22:24:59.282Z,1.27
2022-10-19T22:27:29.852Z,1.48
2022-10-19T22:30:00.104Z,1.83
2022-10-19T22:32:33.220Z,1.40
2022-10-19T22:35:04.685Z,1.98
2022-10-19T22:37:36.281Z,1.30
2022-10-19T22:40:06.896Z,1.80
2022-10-19T22:42:38.007Z,1.60
2022-10-19T22:45:09.747Z,1.65
2022-10-19T22:47:40.212Z,1.73
2022-10-19T22:52:43.248Z,1.70
2022-10-19T22:55:13.593Z,1.90
2022-10-19T22:57:44.045Z,1.45
2022-10-19T23:02:44.604Z,1.30
2022-10-19T23:07:44.844Z,1.80
2022-10-19T23:10:15.171Z,1.10
2022-10-19T23:12:45.775Z,1.00
2022-10-19T23:17:46.705Z,1.17
2022-10-19T23:20:17.815Z,1.13
2022-10-19T23:22:48.368Z,1.50
2022-10-19T23:27:50.424Z,1.33
2022-10-19T23:30:20.857Z,1.58
2022-10-19T23:32:51.424Z,1.27
2022-10-19T23:37:51.641Z,1.20
2022-10-19T23:42:51.749Z,1.52
2022-10-19T23:45:22.267Z,1.50
2022-10-19T23:47:52.715Z,1.17
2022-10-19T23:50:23.072Z,1.40
2022-10-19T23:52:53.580Z,1.25
2022-10-19T23:55:24.207Z,1.52
2022-10-19T23:57:54.728Z,1.30
